Time;durP1;ratioP1;P1;durP2;ratioP2;P2;SDS_P1;SDS_P2;PMS_P1;PMS_P2;Temp;Humidity;BMP_temperature;BMP_pressure;BME280_temperature;BME280_humidity;BME280_pressure;Samples;Min_cycle;Max_cycle;Signal;HPM_P1;HPM_P2
2023/04/25 00:02:13;;;;;;;17.25;3.78;;;7.00;99.90;;;;;;4932085;29;20051;-67
2023/04/25 00:04:39;;;;;;;16.65;4.13;;;7.10;99.90;;;;;;4932544;29;20485;-67
2023/04/25 00:07:05;;;;;;;14.63;3.60;;;7.00;99.90;;;;;;4930300;29;20126;-67
2023/04/25 00:09:31;;;;;;;18.52;4.40;;;7.00;99.90;;;;;;4932114;29;20055;-67
2023/04/25 00:11:57;;;;;;;16.83;3.80;;;7.00;99.90;;;;;;4932110;29;20048;-67
2023/04/25 00:14:22;;;;;;;14.77;3.95;;;6.90;99.90;;;;;;4927826;29;20124;-67
2023/04/25 00:16:48;;;;;;;18.25;4.20;;;6.90;99.90;;;;;;4927736;29;20067;-67
2023/04/25 00:19:14;;;;;;;15.70;4.00;;;6.90;99.90;;;;;;4927840;29;20461;-68
2023/04/25 00:21:46;;;;;;;15.52;3.55;;;6.80;99.90;;;;;;4927035;29;20126;-67
2023/04/25 00:24:12;;;;;;;15.93;3.97;;;6.80;99.90;;;;;;4929690;29;20040;-67
2023/04/25 00:26:38;;;;;;;21.20;4.30;;;6.70;99.90;;;;;;4925485;29;20051;-67
2023/04/25 00:29:03;;;;;;;14.35;4.13;;;6.70;99.90;;;;;;4931710;29;20456;-67
2023/04/25 00:31:30;;;;;;;16.38;3.90;;;6.70;99.90;;;;;;4925279;29;20468;-68
2023/04/25 00:33:55;;;;;;;11.05;3.53;;;6.60;99.90;;;;;;4927401;29;20047;-67
2023/04/25 00:36:21;;;;;;;17.08;3.47;;;6.60;99.90;;;;;;4928798;29;20495;-68
2023/04/25 00:38:47;;;;;;;17.10;3.67;;;6.60;99.90;;;;;;4926522;29;20111;-67
2023/04/25 00:41:13;;;;;;;17.40;3.75;;;6.60;99.90;;;;;;4928478;29;20056;-67
2023/04/25 00:43:40;;;;;;;17.23;3.03;;;6.50;99.90;;;;;;4928290;29;20165;-68
2023/04/25 00:46:05;;;;;;;13.38;3.30;;;6.50;99.90;;;;;;4928780;29;20122;-67
2023/04/25 00:48:31;;;;;;;15.45;3.65;;;6.50;99.90;;;;;;4926312;29;20452;-67
2023/04/25 00:50:58;;;;;;;13.40;3.58;;;6.50;99.90;;;;;;4925714;29;20098;-67
2023/04/25 00:53:27;;;;;;;12.93;3.05;;;6.50;99.90;;;;;;4926487;29;20043;-67
2023/04/25 00:55:53;;;;;;;14.30;3.20;;;6.50;99.90;;;;;;4925907;29;20079;-67
2023/04/25 00:58:22;;;;;;;18.40;4.13;;;6.50;99.90;;;;;;4927436;29;20036;-67
2023/04/25 01:00:50;;;;;;;15.18;3.25;;;6.50;99.90;;;;;;4926856;29;20044;-68
2023/04/25 01:03:17;;;;;;;15.00;3.35;;;6.60;99.90;;;;;;4928159;29;20044;-67
2023/04/25 01:05:43;;;;;;;16.13;3.58;;;6.50;99.90;;;;;;4927937;29;20056;-68
2023/04/25 01:08:09;;;;;;;12.07;3.47;;;6.50;99.90;;;;;;4928325;29;20063;-67
2023/04/25 01:10:36;;;;;;;14.82;3.30;;;6.50;99.90;;;;;;4928725;29;20049;-68
2023/04/25 01:13:02;;;;;;;16.38;4.15;;;6.50;99.90;;;;;;4914821;29;20522;-68
2023/04/25 01:15:28;;;;;;;19.38;3.58;;;6.50;99.90;;;;;;4932337;29;20063;-67
2023/04/25 01:17:57;;;;;;;15.85;3.75;;;6.50;99.90;;;;;;4934600;29;20119;-66
2023/04/25 01:20:24;;;;;;;17.45;3.60;;;6.60;99.90;;;;;;4925634;29;20051;-67
2023/04/25 01:22:51;;;;;;;14.63;3.97;;;6.50;99.90;;;;;;4933935;29;20074;-67
2023/04/25 01:25:19;;;;;;;19.15;3.60;;;6.50;99.90;;;;;;4934446;29;20103;-67
2023/04/25 01:27:45;;;;;;;14.93;3.33;;;6.50;99.90;;;;;;4931351;29;20131;-68
2023/04/25 01:30:11;;;;;;;16.27;3.65;;;6.50;99.90;;;;;;4931276;29;20472;-68
2023/04/25 01:32:42;;;;;;;17.40;4.10;;;6.50;99.90;;;;;;4932059;29;20100;-67
2023/04/25 01:35:10;;;;;;;15.13;4.18;;;6.40;99.90;;;;;;4934585;29;20051;-67
2023/04/25 01:37:40;;;;;;;14.10;3.50;;;6.40;99.90;;;;;;4931359;29;20040;-67
2023/04/25 01:40:08;;;;;;;11.07;3.10;;;6.50;99.90;;;;;;4933931;29;20039;-67
2023/04/25 01:42:35;;;;;;;14.30;3.65;;;6.40;99.90;;;;;;4934876;29;20051;-67
2023/04/25 01:45:01;;;;;;;10.48;3.10;;;6.40;99.90;;;;;;4934661;29;20142;-67
2023/04/25 01:47:27;;;;;;;16.88;3.60;;;6.50;99.90;;;;;;4934273;29;20059;-67
2023/04/25 01:49:53;;;;;;;13.93;3.25;;;6.50;99.90;;;;;;4934023;29;20078;-66
2023/04/25 01:52:18;;;;;;;14.02;3.40;;;6.50;99.90;;;;;;4932859;29;20044;-67
2023/04/25 01:54:44;;;;;;;19.08;3.95;;;6.50;99.90;;;;;;4935555;29;20079;-67
2023/04/25 01:57:13;;;;;;;10.88;2.85;;;6.50;99.90;;;;;;4935359;29;20087;-68
2023/04/25 01:59:39;;;;;;;11.75;3.08;;;6.50;99.90;;;;;;4935118;29;20484;-68
2023/04/25 02:02:05;;;;;;;16.10;3.95;;;6.50;99.90;;;;;;4932621;29;20055;-68
2023/04/25 02:04:31;;;;;;;16.00;3.10;;;6.50;99.90;;;;;;4929523;29;20054;-67
2023/04/25 02:06:56;;;;;;;16.73;3.25;;;6.50;99.90;;;;;;4929949;29;20131;-67
2023/04/25 02:09:22;;;;;;;15.50;3.38;;;6.50;99.90;;;;;;4931881;29;20130;-67
2023/04/25 02:11:48;;;;;;;14.63;3.45;;;6.50;99.90;;;;;;4928171;29;20136;-67
2023/04/25 02:14:14;;;;;;;14.65;4.13;;;6.50;99.90;;;;;;4929855;29;20446;-67
2023/04/25 02:16:40;;;;;;;12.23;3.45;;;6.40;99.90;;;;;;4929938;29;20056;-67
2023/04/25 02:19:08;;;;;;;13.85;3.50;;;6.50;99.90;;;;;;4928685;29;20436;-67
2023/04/25 02:21:35;;;;;;;15.10;3.38;;;6.50;99.90;;;;;;4933652;29;20149;-67
2023/04/25 02:24:01;;;;;;;13.18;3.38;;;6.60;99.90;;;;;;4931774;29;20487;-68
2023/04/25 02:26:27;;;;;;;10.75;3.42;;;6.60;99.90;;;;;;4931589;29;20371;-67
2023/04/25 02:28:52;;;;;;;13.10;3.60;;;6.60;99.90;;;;;;4932505;29;20047;-67
2023/04/25 02:31:18;;;;;;;14.40;3.13;;;6.60;99.90;;;;;;4929022;29;20058;-67
2023/04/25 02:33:44;;;;;;;14.65;3.30;;;6.60;99.90;;;;;;4931267;29;20123;-67
2023/04/25 02:36:10;;;;;;;13.40;3.10;;;6.60;99.90;;;;;;4932728;29;20208;-68
2023/04/25 02:38:38;;;;;;;14.77;2.95;;;6.60;99.90;;;;;;4932388;29;20048;-68
2023/04/25 02:41:04;;;;;;;14.82;2.75;;;6.50;99.90;;;;;;4929917;29;20054;-68
2023/04/25 02:43:30;;;;;;;12.48;2.78;;;6.60;99.90;;;;;;4931706;29;20054;-67
2023/04/25 02:45:55;;;;;;;10.55;2.80;;;6.50;99.90;;;;;;4932159;29;20095;-67
2023/04/25 02:48:21;;;;;;;12.88;3.03;;;6.50;99.90;;;;;;4930577;29;20110;-66
2023/04/25 02:50:46;;;;;;;9.02;2.40;;;6.50;99.90;;;;;;4928446;29;20040;-67
2023/04/25 02:53:12;;;;;;;13.43;2.40;;;6.50;99.90;;;;;;4927785;29;20054;-67
2023/04/25 02:55:38;;;;;;;10.82;2.63;;;6.50;99.90;;;;;;4931336;29;20066;-67
2023/04/25 02:58:04;;;;;;;11.68;2.72;;;6.50;99.90;;;;;;4931938;29;20051;-68
2023/04/25 03:00:30;;;;;;;12.30;3.05;;;6.50;99.90;;;;;;4930592;29;20127;-67
2023/04/25 03:02:55;;;;;;;13.65;2.70;;;6.50;99.90;;;;;;4928918;29;20082;-67
2023/04/25 03:05:21;;;;;;;11.80;2.95;;;6.50;99.90;;;;;;4930724;29;20379;-67
2023/04/25 03:07:46;;;;;;;13.30;3.15;;;6.50;99.90;;;;;;4931680;29;20043;-67
2023/04/25 03:10:12;;;;;;;13.43;3.28;;;6.50;99.90;;;;;;4931029;29;20150;-66
2023/04/25 03:12:38;;;;;;;11.27;2.88;;;6.50;99.90;;;;;;4926890;29;20048;-67
2023/04/25 03:15:07;;;;;;;12.77;2.80;;;6.50;99.90;;;;;;4932351;29;20047;-66
2023/04/25 03:17:33;;;;;;;11.63;2.80;;;6.50;99.90;;;;;;4932001;29;20118;-67
2023/04/25 03:19:58;;;;;;;10.52;2.60;;;6.40;99.90;;;;;;4924095;29;20953;-67
2023/04/25 03:22:24;;;;;;;15.13;3.08;;;6.40;99.90;;;;;;4932158;29;20040;-67
2023/04/25 03:24:50;;;;;;;14.75;2.22;;;6.40;99.90;;;;;;4929252;29;20444;-66
2023/04/25 03:27:16;;;;;;;10.75;2.28;;;6.40;99.90;;;;;;4929299;29;20454;-67
2023/04/25 03:29:42;;;;;;;14.35;2.47;;;6.40;99.90;;;;;;4931117;29;20116;-67
2023/04/25 03:32:07;;;;;;;10.70;2.10;;;6.40;99.90;;;;;;4929388;29;20416;-67
2023/04/25 03:34:33;;;;;;;11.40;2.50;;;6.40;99.90;;;;;;4930963;29;20043;-67
2023/04/25 03:37:01;;;;;;;13.23;2.50;;;6.40;99.90;;;;;;4912930;29;20039;-67
2023/04/25 03:39:27;;;;;;;9.02;1.88;;;6.30;99.90;;;;;;4931126;29;20403;-68
2023/04/25 03:41:52;;;;;;;8.15;2.00;;;6.40;99.90;;;;;;4930268;29;20048;-68
2023/04/25 03:44:18;;;;;;;15.05;2.60;;;6.40;99.90;;;;;;4932042;29;20343;-67
2023/04/25 03:46:43;;;;;;;10.73;1.80;;;6.40;99.90;;;;;;4929230;29;20095;-68
2023/04/25 03:49:09;;;;;;;11.57;2.45;;;6.40;99.90;;;;;;4926262;29;20036;-67
2023/04/25 03:51:35;;;;;;;10.05;1.80;;;6.30;99.90;;;;;;4932163;29;20043;-68
2023/04/25 03:54:00;;;;;;;10.30;1.95;;;6.30;99.90;;;;;;4929572;29;20040;-67
2023/04/25 03:56:26;;;;;;;10.23;2.15;;;6.30;99.90;;;;;;4932826;29;20043;-68
2023/04/25 03:58:52;;;;;;;7.95;1.98;;;6.20;99.90;;;;;;4930682;29;20056;-68
2023/04/25 04:01:17;;;;;;;12.35;2.17;;;6.20;99.90;;;;;;4932598;29;20103;-68
2023/04/25 04:03:43;;;;;;;8.20;1.80;;;6.20;99.90;;;;;;4929083;29;20049;-68
2023/04/25 04:06:09;;;;;;;11.27;2.03;;;6.20;99.90;;;;;;4932373;29;20051;-68
2023/04/25 04:08:35;;;;;;;8.13;1.70;;;6.20;99.90;;;;;;4931029;29;20036;-67
2023/04/25 04:11:00;;;;;;;7.93;2.17;;;6.20;99.90;;;;;;4926213;29;20980;-66
2023/04/25 04:13:27;;;;;;;7.88;1.60;;;6.20;99.90;;;;;;4924574;29;20107;-66
2023/04/25 04:15:53;;;;;;;7.53;1.60;;;6.10;99.90;;;;;;4923493;29;20953;-68
2023/04/25 04:18:18;;;;;;;8.15;1.70;;;6.20;99.90;;;;;;4923899;29;20088;-67
2023/04/25 04:20:44;;;;;;;10.07;2.00;;;6.20;99.90;;;;;;4931585;29;20075;-67
2023/04/25 04:23:10;;;;;;;8.25;2.17;;;6.20;99.90;;;;;;4929438;29;20086;-68
2023/04/25 04:25:40;;;;;;;8.40;2.30;;;6.10;99.90;;;;;;4929347;29;20046;-67
2023/04/25 04:28:06;;;;;;;9.63;2.13;;;6.10;99.90;;;;;;4929023;29;20604;-68
2023/04/25 04:30:33;;;;;;;9.43;2.20;;;6.10;99.90;;;;;;4928789;29;20040;-67
2023/04/25 04:33:00;;;;;;;7.38;1.70;;;6.10;99.90;;;;;;4925990;29;20527;-67
2023/04/25 04:35:26;;;;;;;7.97;1.88;;;6.10;99.90;;;;;;4927043;29;20074;-67
2023/04/25 04:37:52;;;;;;;10.75;2.95;;;6.20;99.90;;;;;;4926453;29;20055;-68
2023/04/25 04:40:17;;;;;;;7.88;2.00;;;6.10;99.90;;;;;;4928483;29;20115;-67
2023/04/25 04:42:45;;;;;;;10.10;1.85;;;6.10;99.90;;;;;;4928525;29;20083;-67
2023/04/25 04:45:12;;;;;;;8.48;1.95;;;6.10;99.90;;;;;;4929092;29;20044;-67
2023/04/25 04:47:39;;;;;;;9.95;2.33;;;6.10;99.90;;;;;;4933545;29;20036;-67
2023/04/25 04:50:09;;;;;;;11.45;2.33;;;6.10;99.90;;;;;;4934436;29;20047;-67
2023/04/25 04:52:35;;;;;;;11.80;2.28;;;6.00;99.90;;;;;;4935075;29;20075;-68
2023/04/25 04:55:01;;;;;;;8.27;2.10;;;6.10;99.90;;;;;;4926654;29;20059;-67
2023/04/25 04:57:28;;;;;;;9.38;1.70;;;6.10;99.90;;;;;;4931644;29;20066;-68
2023/04/25 04:59:53;;;;;;;11.73;2.03;;;6.10;99.90;;;;;;4931641;29;20044;-67
2023/04/25 05:02:19;;;;;;;9.27;1.92;;;6.10;99.90;;;;;;4933326;29;20139;-67
2023/04/25 05:04:45;;;;;;;7.97;2.22;;;6.10;99.90;;;;;;4933544;29;20194;-66
2023/04/25 05:07:11;;;;;;;7.35;2.05;;;6.20;99.90;;;;;;4932531;29;20044;-67
2023/04/25 05:09:36;;;;;;;10.20;2.03;;;6.20;99.90;;;;;;4933831;29;20082;-67
2023/04/25 05:12:02;;;;;;;8.25;2.00;;;6.30;99.90;;;;;;4932630;29;20518;-67
2023/04/25 05:14:28;;;;;;;7.60;2.15;;;6.30;99.90;;;;;;4934790;29;20158;-68
2023/04/25 05:16:54;;;;;;;8.20;1.70;;;6.30;99.90;;;;;;4935098;29;20056;-68
2023/04/25 05:19:19;;;;;;;9.88;2.15;;;6.30;99.90;;;;;;4932079;29;20048;-68
2023/04/25 05:21:45;;;;;;;8.23;1.70;;;6.40;99.90;;;;;;4933394;29;20040;-68
2023/04/25 05:24:10;;;;;;;9.13;1.77;;;6.40;99.90;;;;;;4928924;29;20059;-67
2023/04/25 05:26:37;;;;;;;8.85;1.80;;;6.30;99.90;;;;;;4933478;29;20582;-67
2023/04/25 05:29:02;;;;;;;6.05;1.55;;;6.30;99.90;;;;;;4929198;29;20464;-67
2023/04/25 05:31:28;;;;;;;7.32;1.60;;;6.40;99.90;;;;;;4934050;29;20043;-67
2023/04/25 05:33:54;;;;;;;6.93;1.75;;;6.40;99.90;;;;;;4931451;29;20440;-67
2023/04/25 05:36:19;;;;;;;8.43;1.90;;;6.60;99.90;;;;;;4933524;29;20106;-67
2023/04/25 05:38:45;;;;;;;7.50;1.48;;;6.60;99.90;;;;;;4933785;29;20134;-67
2023/04/25 05:41:11;;;;;;;10.73;1.73;;;6.70;99.90;;;;;;4933432;29;20363;-67
2023/04/25 05:43:36;;;;;;;13.88;2.13;;;6.90;99.90;;;;;;4935595;29;20112;-68
2023/04/25 05:46:02;;;;;;;7.20;1.60;;;7.10;99.90;;;;;;4929591;29;20531;-67
2023/04/25 05:48:28;;;;;;;12.07;2.00;;;7.10;99.90;;;;;;4934328;29;20078;-66
2023/04/25 05:50:53;;;;;;;8.20;1.83;;;7.20;99.90;;;;;;4925313;29;20427;-66
2023/04/25 05:53:20;;;;;;;12.45;2.05;;;7.20;99.90;;;;;;4916463;29;20076;-68
2023/04/25 05:55:46;;;;;;;7.47;1.83;;;7.20;99.90;;;;;;4931325;29;20127;-67
2023/04/25 05:58:12;;;;;;;9.60;1.70;;;7.20;99.90;;;;;;4932569;29;20073;-67
2023/04/25 06:00:38;;;;;;;9.45;2.25;;;7.10;99.90;;;;;;4933602;29;20044;-68
2023/04/25 06:03:09;;;;;;;8.43;1.98;;;7.00;99.90;;;;;;4934500;29;20051;-67
2023/04/25 06:05:35;;;;;;;6.75;1.50;;;7.10;99.90;;;;;;4934305;29;20157;-67
2023/04/25 06:08:01;;;;;;;8.23;1.65;;;7.10;99.90;;;;;;4933635;29;20198;-66
2023/04/25 06:10:26;;;;;;;9.23;1.85;;;7.10;99.90;;;;;;4933736;29;20442;-68
2023/04/25 06:12:52;;;;;;;8.43;1.75;;;7.10;99.90;;;;;;4930725;29;20051;-68
2023/04/25 06:15:17;;;;;;;8.77;1.60;;;7.10;99.90;;;;;;4926135;29;20067;-68
2023/04/25 06:17:43;;;;;;;7.28;2.00;;;7.20;99.90;;;;;;4932145;29;20118;-67
2023/04/25 06:20:09;;;;;;;9.05;1.70;;;7.20;99.90;;;;;;4932307;29;20100;-67
2023/04/25 06:22:35;;;;;;;10.52;1.80;;;7.30;99.90;;;;;;4934399;29;20048;-68
2023/04/25 06:25:02;;;;;;;6.80;1.60;;;7.30;99.90;;;;;;4930864;29;20048;-67
2023/04/25 06:27:28;;;;;;;11.02;2.05;;;7.40;99.90;;;;;;4926982;29;20050;-67
2023/04/25 06:29:53;;;;;;;6.82;1.52;;;7.30;99.90;;;;;;4926678;29;20039;-67
2023/04/25 06:32:19;;;;;;;7.80;1.60;;;7.30;99.90;;;;;;4930519;29;20043;-66
2023/04/25 06:34:45;;;;;;;6.20;1.77;;;7.30;99.90;;;;;;4918787;29;20052;-67
2023/04/25 06:37:11;;;;;;;4.85;1.38;;;7.30;99.90;;;;;;4932039;29;20055;-66
2023/04/25 06:39:36;;;;;;;7.22;1.85;;;7.40;99.90;;;;;;4931778;29;20134;-66
2023/04/25 06:42:04;;;;;;;11.00;1.80;;;7.60;99.90;;;;;;4933091;29;20123;-67
2023/04/25 06:44:30;;;;;;;7.32;1.60;;;7.60;99.90;;;;;;4927890;29;20047;-67
2023/04/25 06:46:56;;;;;;;9.02;1.45;;;7.70;99.90;;;;;;4926276;29;20491;-67
2023/04/25 06:49:22;;;;;;;7.95;1.60;;;7.80;99.90;;;;;;4925339;29;20046;-67
2023/04/25 06:51:47;;;;;;;10.80;1.95;;;7.80;99.90;;;;;;4927550;29;20507;-67
2023/04/25 06:54:13;;;;;;;9.35;1.80;;;7.80;99.90;;;;;;4926879;29;20060;-68
2023/04/25 06:56:39;;;;;;;6.70;1.55;;;8.00;99.90;;;;;;4925159;29;20530;-68
2023/04/25 06:59:04;;;;;;;7.28;1.63;;;8.20;99.90;;;;;;4927581;29;20062;-67
2023/04/25 07:01:30;;;;;;;7.40;1.48;;;8.20;99.90;;;;;;4921817;29;20040;-68
2023/04/25 07:03:56;;;;;;;8.88;1.50;;;8.30;99.90;;;;;;4924744;29;20040;-67
2023/04/25 07:06:21;;;;;;;8.07;1.60;;;8.50;99.90;;;;;;4925469;29;20043;-67
2023/04/25 07:08:47;;;;;;;8.65;1.67;;;8.60;99.90;;;;;;4924324;29;20230;-67
2023/04/25 07:11:12;;;;;;;7.32;1.67;;;8.70;99.90;;;;;;4921209;29;20050;-67
2023/04/25 07:13:38;;;;;;;9.20;1.60;;;8.70;99.90;;;;;;4923328;29;20096;-67
2023/04/25 07:16:04;;;;;;;8.65;1.70;;;8.60;99.90;;;;;;4924288;29;20044;-67
2023/04/25 07:18:30;;;;;;;7.75;1.90;;;8.70;99.90;;;;;;4922065;29;20088;-67
2023/04/25 07:20:55;;;;;;;9.48;2.05;;;8.70;99.90;;;;;;4923657;29;20148;-67
2023/04/25 07:23:21;;;;;;;8.85;2.30;;;8.70;99.90;;;;;;4921541;29;20039;-67
2023/04/25 07:25:47;;;;;;;10.45;2.15;;;8.80;99.90;;;;;;4921779;29;20401;-67
2023/04/25 07:28:12;;;;;;;7.28;2.38;;;8.80;99.90;;;;;;4923792;29;20039;-68
2023/04/25 07:30:38;;;;;;;12.00;2.60;;;8.80;99.90;;;;;;4924319;29;20075;-67
2023/04/25 07:33:04;;;;;;;11.93;2.40;;;8.90;99.90;;;;;;4926600;29;20119;-67
2023/04/25 07:35:29;;;;;;;9.50;2.28;;;9.00;99.90;;;;;;4921059;29;20099;-68
2023/04/25 07:37:55;;;;;;;10.00;2.08;;;9.10;99.90;;;;;;4924927;29;20119;-67
2023/04/25 07:40:21;;;;;;;8.82;1.85;;;9.30;99.90;;;;;;4922319;29;20111;-67
2023/04/25 07:42:46;;;;;;;9.75;1.58;;;9.30;99.90;;;;;;4924673;29;20043;-67
2023/04/25 07:45:12;;;;;;;9.13;1.65;;;9.20;99.90;;;;;;4921742;29;20147;-67
2023/04/25 07:47:38;;;;;;;9.15;1.48;;;9.20;99.90;;;;;;4926455;29;20120;-67
2023/04/25 07:50:04;;;;;;;14.82;2.08;;;9.30;99.90;;;;;;4923616;29;20062;-68
2023/04/25 07:52:30;;;;;;;7.65;1.50;;;9.20;99.90;;;;;;4927163;29;20095;-68
2023/04/25 07:54:57;;;;;;;7.75;1.65;;;9.40;99.90;;;;;;4933459;29;20403;-66
2023/04/25 07:57:24;;;;;;;8.25;1.40;;;9.40;99.90;;;;;;4932107;29;20070;-67
2023/04/25 07:59:49;;;;;;;7.88;1.42;;;9.20;99.90;;;;;;4924880;29;20066;-66
2023/04/25 08:02:15;;;;;;;6.00;1.50;;;9.00;99.90;;;;;;4931214;29;20122;-67
2023/04/25 08:04:41;;;;;;;7.53;1.73;;;9.10;99.90;;;;;;4930918;29;20051;-66
2023/04/25 08:07:06;;;;;;;11.00;1.48;;;9.30;99.90;;;;;;4922978;29;20051;-66
2023/04/25 08:09:35;;;;;;;7.40;1.42;;;9.60;99.90;;;;;;4926134;29;20485;-67
2023/04/25 08:12:01;;;;;;;7.68;1.52;;;9.50;99.90;;;;;;4926187;29;20043;-66
2023/04/25 08:14:28;;;;;;;6.03;1.13;;;9.30;99.90;;;;;;4922951;29;20127;-65
2023/04/25 08:16:54;;;;;;;6.03;1.25;;;8.70;99.90;;;;;;4923222;29;20451;-66
2023/04/25 08:19:20;;;;;;;5.05;1.08;;;8.40;99.90;;;;;;4923997;29;20198;-66
2023/04/25 08:21:45;;;;;;;5.60;0.93;;;8.10;99.90;;;;;;4928477;29;20119;-66
2023/04/25 08:24:11;;;;;;;6.55;1.00;;;7.60;99.90;;;;;;4927373;29;20156;-66
2023/04/25 08:26:38;;;;;;;7.28;0.85;;;7.50;99.90;;;;;;4926918;29;20040;-66
2023/04/25 08:29:04;;;;;;;3.60;0.82;;;7.60;99.90;;;;;;4929933;29;20095;-67
2023/04/25 08:31:30;;;;;;;4.43;1.00;;;7.70;99.90;;;;;;4930428;28;20831;-67
2023/04/25 08:33:55;;;;;;;9.80;1.10;;;7.90;99.90;;;;;;4926371;29;20111;-67
2023/04/25 08:36:21;;;;;;;8.98;1.65;;;8.10;99.90;;;;;;4929192;29;20067;-66
2023/04/25 08:38:47;;;;;;;4.10;1.02;;;8.20;99.90;;;;;;4929012;29;20051;-66
2023/04/25 08:41:13;;;;;;;6.38;1.10;;;8.30;99.90;;;;;;4925765;29;20055;-68
2023/04/25 08:43:42;;;;;;;5.30;1.20;;;8.20;99.90;;;;;;4929168;29;20149;-68
2023/04/25 08:46:08;;;;;;;6.88;1.30;;;8.20;99.90;;;;;;4928205;29;20056;-67
2023/04/25 08:48:34;;;;;;;5.13;1.20;;;8.10;99.90;;;;;;4931550;29;20054;-68
2023/04/25 08:51:02;;;;;;;5.30;1.00;;;8.30;99.90;;;;;;4929083;29;20119;-68
2023/04/25 08:53:30;;;;;;;9.57;1.60;;;8.50;99.90;;;;;;4931910;29;20070;-67
2023/04/25 08:55:58;;;;;;;5.10;1.00;;;8.80;99.90;;;;;;4930785;29;20388;-66
2023/04/25 08:58:24;;;;;;;5.00;1.50;;;9.00;99.90;;;;;;4927117;29;20055;-67
2023/04/25 09:00:51;;;;;;;10.68;1.45;;;9.20;99.90;;;;;;4925673;29;20052;-68
2023/04/25 09:03:19;;;;;;;5.13;1.35;;;9.40;99.90;;;;;;4928734;29;20047;-68
2023/04/25 09:05:45;;;;;;;8.85;1.55;;;9.80;99.90;;;;;;4931825;29;20047;-67
2023/04/25 09:08:11;;;;;;;6.85;1.70;;;9.90;99.90;;;;;;4931108;29;20054;-67
2023/04/25 09:10:37;;;;;;;4.78;1.25;;;10.20;99.90;;;;;;4933058;29;20039;-67
2023/04/25 09:13:05;;;;;;;7.78;1.25;;;10.40;99.90;;;;;;4934005;29;20403;-67
2023/04/25 09:15:32;;;;;;;7.45;1.30;;;10.40;99.90;;;;;;4935178;29;20051;-67
2023/04/25 09:17:59;;;;;;;6.68;1.45;;;10.20;99.90;;;;;;4933655;29;20055;-67
2023/04/25 09:20:25;;;;;;;9.55;1.73;;;9.90;99.90;;;;;;4930252;29;20388;-66
2023/04/25 09:23:11;;;;;;;8.45;1.42;;;9.90;99.90;;;;;;4929698;29;20110;-68
2023/04/25 09:25:38;;;;;;;6.93;1.52;;;9.70;99.90;;;;;;4934195;29;20060;-65
2023/04/25 09:28:05;;;;;;;10.55;1.60;;;9.80;99.90;;;;;;4938007;29;20069;-65
2023/04/25 09:30:33;;;;;;;9.40;1.30;;;9.80;99.90;;;;;;4936344;29;20066;-65
2023/04/25 09:33:06;;;;;;;5.75;1.40;;;9.90;99.90;;;;;;4933100;29;20055;-66
2023/04/25 09:35:42;;;;;;;7.82;1.48;;;9.90;99.90;;;;;;4934800;29;20059;-68
2023/04/25 09:38:13;;;;;;;8.73;1.60;;;9.90;99.90;;;;;;4933971;29;20055;-68
2023/04/25 09:40:42;;;;;;;7.07;1.50;;;10.10;99.90;;;;;;4934627;29;20439;-68
2023/04/25 09:43:20;;;;;;;5.50;1.48;;;10.20;99.90;;;;;;4934099;29;20044;-68
2023/04/25 09:45:47;;;;;;;8.23;1.60;;;10.30;99.90;;;;;;4927300;29;20987;-66
2023/04/25 09:48:20;;;;;;;6.50;1.10;;;10.40;99.90;;;;;;4921481;29;20052;-67
2023/04/25 09:51:05;;;;;;;6.50;1.38;;;10.40;99.90;;;;;;4926023;29;20047;-67
2023/04/25 09:53:35;;;;;;;9.00;1.45;;;10.40;99.90;;;;;;4935001;29;20478;-67
2023/04/25 09:56:05;;;;;;;7.25;1.20;;;10.50;99.90;;;;;;4934100;29;20039;-67
2023/04/25 09:58:31;;;;;;;6.85;1.30;;;10.60;99.90;;;;;;4936022;29;20047;-68
2023/04/25 10:01:02;;;;;;;7.55;1.40;;;10.70;99.90;;;;;;4931090;29;20122;-68
2023/04/25 10:03:30;;;;;;;5.68;1.13;;;10.80;99.90;;;;;;4932704;29;20150;-68
2023/04/25 10:05:59;;;;;;;6.40;1.48;;;10.90;99.90;;;;;;4934996;29;20074;-68
2023/04/25 10:08:28;;;;;;;6.95;1.10;;;11.10;99.90;;;;;;4934993;29;20047;-67
2023/04/25 10:10:53;;;;;;;6.20;1.50;;;11.20;99.90;;;;;;4933055;29;20404;-67
2023/04/25 10:13:19;;;;;;;5.30;1.20;;;11.40;99.90;;;;;;4933642;29;20058;-68
2023/04/25 10:15:46;;;;;;;5.97;1.20;;;11.40;99.10;;;;;;4934163;29;20063;-68
2023/04/25 10:18:12;;;;;;;4.88;1.27;;;11.20;99.50;;;;;;4930814;29;20127;-67
2023/04/25 10:20:38;;;;;;;6.07;1.45;;;11.00;99.50;;;;;;4934420;29;20455;-67
2023/04/25 10:23:13;;;;;;;7.35;1.50;;;10.90;99.90;;;;;;4933077;29;20047;-68
2023/04/25 10:25:40;;;;;;;7.63;1.48;;;10.60;99.90;;;;;;4923457;29;20051;-67
2023/04/25 10:28:05;;;;;;;7.82;1.50;;;10.30;99.90;;;;;;4932028;29;20107;-68
2023/04/25 10:30:31;;;;;;;6.10;1.35;;;10.10;99.90;;;;;;4933544;29;20097;-68
2023/04/25 10:32:59;;;;;;;7.10;1.38;;;9.90;99.90;;;;;;4932972;29;20502;-68
2023/04/25 10:35:27;;;;;;;11.02;1.98;;;10.00;99.90;;;;;;4932705;29;20071;-69
2023/04/25 10:38:05;;;;;;;9.45;1.50;;;9.80;99.90;;;;;;4933389;29;20048;-68
2023/04/25 10:40:34;;;;;;;5.68;1.25;;;9.70;99.90;;;;;;4918179;29;20075;-67
2023/04/25 10:43:37;;;;;;;6.40;1.60;;;9.60;99.90;;;;;;4932926;29;20051;-67
2023/04/25 10:46:15;;;;;;;5.45;1.25;;;9.70;99.90;;;;;;4925690;29;20102;-66
2023/04/25 10:48:47;;;;;;;6.70;1.88;;;9.80;99.90;;;;;;4927981;29;20491;-66
2023/04/25 10:51:28;;;;;;;5.45;1.30;;;9.80;99.90;;;;;;4926579;29;20137;-65
2023/04/25 10:54:04;;;;;;;7.72;1.33;;;9.80;99.90;;;;;;4927950;29;20121;-67
2023/04/25 10:56:32;;;;;;;7.20;2.03;;;9.90;99.90;;;;;;4925383;29;20447;-66
2023/04/25 10:59:15;;;;;;;10.13;1.65;;;9.90;99.90;;;;;;4929053;29;20055;-66
2023/04/25 11:02:07;;;;;;;7.57;1.77;;;10.00;99.90;;;;;;4926526;29;20036;-67
2023/04/25 11:04:38;;;;;;;7.20;1.38;;;10.00;99.90;;;;;;4927048;29;20035;-67
2023/04/25 11:07:13;;;;;;;6.38;1.50;;;9.80;99.90;;;;;;4933099;29;20103;-67
2023/04/25 11:09:40;;;;;;;;;;;9.90;99.90;;;;;;4932529;29;20067;-67
2023/04/25 11:12:07;;;;;;;6.68;1.20;;;9.80;99.90;;;;;;4932484;29;19965;-67
2023/04/25 11:14:33;;;;;;;4.97;1.60;;;9.90;99.90;;;;;;4931148;29;20059;-66
2023/04/25 11:17:01;;;;;;;6.40;1.30;;;9.90;99.90;;;;;;4934007;29;20048;-68
2023/04/25 11:19:28;;;;;;;9.25;1.60;;;10.00;99.90;;;;;;4929332;29;20048;-66
2023/04/25 11:21:59;;;;;;;7.53;1.30;;;10.20;99.90;;;;;;4932589;29;20062;-66
2023/04/25 11:24:32;;;;;;;9.52;1.50;;;10.30;99.90;;;;;;4932504;29;20122;-66
2023/04/25 11:26:59;;;;;;;7.70;1.55;;;10.60;99.90;;;;;;4933099;29;20398;-66
2023/04/25 11:29:34;;;;;;;4.15;1.13;;;10.90;99.90;;;;;;4932318;29;20043;-66
2023/04/25 11:32:01;;;;;;;5.78;1.42;;;10.90;99.90;;;;;;4930752;29;20036;-66
2023/04/25 11:34:30;;;;;;;5.38;1.30;;;11.00;99.90;;;;;;4933453;29;20047;-66
2023/04/25 11:36:56;;;;;;;5.40;1.17;;;11.20;99.90;;;;;;4931269;29;20099;-66
2023/04/25 11:39:24;;;;;;;6.55;1.38;;;11.40;99.90;;;;;;4931071;29;20429;-65
2023/04/25 11:41:50;;;;;;;6.43;1.45;;;11.60;99.90;;;;;;4932527;29;20594;-66
2023/04/25 11:44:17;;;;;;;6.70;1.35;;;11.60;99.90;;;;;;4933497;29;20230;-66
2023/04/25 11:46:43;;;;;;;6.35;1.17;;;11.70;99.90;;;;;;4933446;29;20044;-66
2023/04/25 11:49:09;;;;;;;8.02;1.33;;;11.50;99.90;;;;;;4933772;29;20483;-66
2023/04/25 11:51:43;;;;;;;6.97;1.50;;;11.40;99.90;;;;;;4925133;29;20131;-66
2023/04/25 11:54:08;;;;;;;5.97;1.10;;;11.50;99.90;;;;;;4914599;29;20128;-67
2023/04/25 11:56:34;;;;;;;7.40;1.40;;;11.90;99.90;;;;;;4931589;29;20127;-67
2023/04/25 11:59:02;;;;;;;8.48;1.85;;;11.80;99.60;;;;;;4932199;29;20070;-66
2023/04/25 12:01:36;;;;;;;6.70;1.50;;;11.80;97.70;;;;;;4931010;29;20171;-67
2023/04/25 12:04:20;;;;;;;5.93;1.35;;;11.10;99.90;;;;;;4933142;29;20054;-67
2023/04/25 12:06:49;;;;;;;6.82;1.33;;;10.50;99.90;;;;;;4933254;29;20067;-67
2023/04/25 12:09:18;;;;;;;7.95;1.42;;;10.40;99.90;;;;;;4933191;29;20059;-67
2023/04/25 12:11:45;;;;;;;5.97;1.40;;;10.20;99.90;;;;;;4931839;29;20059;-67
2023/04/25 12:14:19;;;;;;;7.22;1.55;;;10.10;99.90;;;;;;4930700;29;20134;-66
2023/04/25 12:16:46;;;;;;;7.07;1.40;;;10.40;99.90;;;;;;4929533;29;20079;-66
2023/04/25 12:19:16;;;;;;;4.13;1.30;;;10.50;99.90;;;;;;4933438;29;20479;-66
2023/04/25 12:21:43;;;;;;;5.30;1.13;;;10.70;99.90;;;;;;4927107;29;20040;-67
2023/04/25 12:24:14;;;;;;;6.75;1.52;;;11.20;99.90;;;;;;4915395;29;20036;-67
2023/04/25 12:27:07;;;;;;;7.65;1.55;;;11.30;99.90;;;;;;4930183;29;20127;-67
2023/04/25 12:29:34;;;;;;;6.28;1.10;;;11.00;99.90;;;;;;4927564;29;20121;-67
2023/04/25 12:32:01;;;;;;;6.65;1.30;;;10.80;99.90;;;;;;4943265;28;20115;-65
2023/04/25 12:34:27;;;;;;;5.13;1.42;;;10.30;99.90;;;;;;4931499;29;20502;-66
2023/04/25 12:36:54;;;;;;;6.80;1.20;;;10.20;99.90;;;;;;4931056;29;20040;-67
2023/04/25 12:39:21;;;;;;;3.85;1.00;;;10.10;99.90;;;;;;4928202;29;20090;-69
2023/04/25 12:41:53;;;;;;;4.80;1.20;;;10.10;99.90;;;;;;4922262;29;20630;-68
2023/04/25 12:44:19;;;;;;;7.40;1.30;;;10.10;99.90;;;;;;4929146;29;20146;-68
2023/04/25 12:46:45;;;;;;;5.88;1.20;;;10.10;99.90;;;;;;4931495;29;20082;-69
2023/04/25 12:49:11;;;;;;;4.05;0.93;;;10.10;99.90;;;;;;4927253;29;20078;-68
2023/04/25 12:51:37;;;;;;;7.88;1.27;;;10.20;99.90;;;;;;4930765;29;20079;-69